SOR middle
Location St. Johann in Tirol Start Time 8.1.2011 13:34:06
Category Závod
Distance 10,80 km Ascend 160,8 m Descend -156,9 m
Total Time 00:40:33 Moving 00:37:18 Stopped 00:03:15
Average Speed 16,0 km/h Fastest Speed 37,4 km/h Slowest Speed 0,4 km/h
Calories 923 Average HR N/A Max HR N/A
Weather 5 °C Clear
Equipment
Notes pocity nic moc, nejak jsem si nepripadal ze zavodim. Jenda sel 2' prede mnou, ale na K5 zlomil cip a pak uz moc nezavodil, ale to jsem nevedel, Takze jsem ho predjel. Menci chybka na K2 (prejel jsem fiknu a na K12 (objizdel jsem a chtelo to zout a prenest lesem nahoru - bylo to skoro pul miny), pak na konci jeste na 2 kontrolach problemy v dohledavce - dalsi cca pul miny - takze pocity nic moc, ale nakonec nejlepsi vysledek na SOT H 21- (57) 8,1 km 220 Hm 19 P Pl Stnr Name Jg Verein Zeit 1 55 Lars Moholdt Norway 34:40 2 51 Kirill Veselov Russian Federation 34:44 3 49 Peter Arnesson Sweden 34:49 4 48 Andrey Grigoriev Russian Federation 35:27 5 47 Martin Hamarberg Kvamsvedens GOIF 36:00 6 44 Eivind Tonna Norway 36:01 7 46 Andrey Gruzdev Russian Federation 36:22 7 27 Ondrej Vodrazka Czech Republic Senior Team 36:22 7 56 Staffan Tunis Finland 36:22 10 50 Johann Granath Sweden 36:40 11 38 Ove Saetra Norway 37:00 12 54 Andrey Lamov Russian Federation 37:10 13 52 Eduard Khrennikov Russian Federation 37:28 14 42 Stanimir Belomazhev Bulgaria 38:13 15 45 Vladimir Barchukov Russian Federation 38:20 16 33 Jiri Bouchal Czech Republic Senior Team 38:28 17 53 Hans Jörgen Kvale Norway 38:39 18 40 Sindre Haverstad Norway 38:43 19 31 Sergei Osipov Russian Federation 38:44 20 43 Janne Häkkinen Finland 38:48 20 25 Andrin Kappenberger Swiss-O Team 38:48 22 41 Mikhail Sorokin Kazakhstan 38:49 23 37 Joel Sjölander Sweden 39:12 24 30 Valery Gluhov Russian Federation 40:15 25 34 Gion Schnyder Swiss-O Team 40:28 26 28 Carl Magnusson IFK Moras OK 40:59 27 22 Jakub Skoda Czech Republic Senior Team 41:04 28 35 Christian Hohl Swiss-O Team 41:05 29 16 Nerijus Sulcys Lithuania 41:08 29 24 Michal Drobnik Czech Republic Senior Team 41:08 31 36 Vadim Tolstopyatov Russian Federation 41:18 32 26 David Bejmer IFK Moras OK 41:24 33 23 Radek Laciga Czech Republic Senior Team 42:20 34 21 Gabriele Canella Italy 42:48 35 6 Milan Venhoda OK Jihlava 44:27 36 19 Tobias Lutz Swiss-O Team 44:32 37 14 Stephan Varga Austria 45:30 38 20 Michael Bühl Swiss-O Team 45:48 39 18 Johann Kugler Austria 45:57 40 17 Bernd Kohlschmidt SV Robotron Dresden 46:04 41 5 Marek Pospisek Czech Republic Senior Team 46:47
Splits
Distance (km) Total Time Split Time Split Pace Split Speed Elevation Change (m)
0,50 00:03:12 00:03:12 00:06:25 9,4 3,31
1,00 00:04:42 00:01:30 00:03:01 19,9 5,80
1,50 00:06:27 00:01:45 00:03:30 17,1 3,37
2,00 00:08:15 00:01:47 00:03:36 16,7 5,36
2,50 00:10:52 00:02:36 00:05:13 11,5 14,10
3,00 00:14:10 00:03:17 00:06:36 9,1 37,64
3,50 00:16:37 00:02:27 00:04:55 12,2 17,48
4,00 00:19:14 00:02:37 00:05:15 11,4 15,78
4,50 00:21:26 00:02:11 00:04:23 13,7 7,52
5,00 00:22:48 00:01:22 00:02:44 21,9 -27,84
5,50 00:24:26 00:01:37 00:03:16 18,4 -9,39
6,00 00:26:54 00:02:27 00:04:55 12,2 6,40
6,50 00:27:49 00:00:55 00:01:50 32,6 -29,70
7,00 00:28:57 00:01:07 00:02:15 26,7 -14,93
7,50 00:30:21 00:01:23 00:02:48 21,5 -16,39
8,00 00:31:41 00:01:20 00:02:41 22,3 -3,88
8,50 00:32:52 00:01:10 00:02:22 25,4 -1,56
9,00 00:34:09 00:01:16 00:02:33 23,5 -5,05
9,50 00:36:13 00:02:04 00:04:08 14,5 10,49
10,00 00:38:02 00:01:48 00:03:37 16,6 -12,93
10,50 00:39:37 00:01:35 00:03:12 18,8 -4,29
10,80 00:40:33 00:00:55 00:03:01 19,9 0,42